createdAt,value
2023-05-15T00:01:35.865Z,97306.00
2023-05-15T00:04:02.335Z,97305.00
2023-05-15T00:06:28.765Z,97304.00
2023-05-15T00:08:55.425Z,97304.00
2023-05-15T00:11:22.781Z,97301.00
2023-05-15T00:13:50.010Z,97292.00
2023-05-15T00:16:16.478Z,97304.00
2023-05-15T00:18:42.660Z,97299.00
2023-05-15T00:21:08.934Z,97278.00
2023-05-15T00:23:35.113Z,97282.00
2023-05-15T00:26:01.270Z,97293.00
2023-05-15T00:28:27.650Z,97264.00
2023-05-15T00:30:55.625Z,97280.00
2023-05-15T00:33:21.888Z,97287.00
2023-05-15T00:35:48.062Z,97264.00
2023-05-15T00:38:14.191Z,97273.00
2023-05-15T00:40:42.702Z,97271.00
2023-05-15T00:43:10.674Z,97277.00
2023-05-15T00:45:40.613Z,97278.00
2023-05-15T00:48:11.984Z,97275.00
2023-05-15T00:50:40.960Z,97274.00
2023-05-15T00:53:07.851Z,97263.00
2023-05-15T00:55:36.014Z,97264.00
2023-05-15T00:58:04.445Z,97266.00
2023-05-15T01:00:33.092Z,97259.00
2023-05-15T01:03:01.121Z,97276.00
2023-05-15T01:05:28.193Z,97277.00
2023-05-15T01:08:11.821Z,97267.00
2023-05-15T01:10:42.338Z,97273.00
2023-05-15T01:13:10.669Z,97254.00
2023-05-15T01:15:37.469Z,97275.00
2023-05-15T01:18:05.279Z,97281.00
2023-05-15T01:20:46.865Z,97260.00
2023-05-15T01:23:49.377Z,97266.00
2023-05-15T01:26:48.231Z,97259.00
2023-05-15T01:29:34.658Z,97265.00
2023-05-15T01:32:19.403Z,97255.00
2023-05-15T01:35:05.569Z,97265.00
2023-05-15T01:37:36.101Z,97266.00
2023-05-15T01:40:06.742Z,97267.00
2023-05-15T01:42:41.697Z,97249.00
2023-05-15T01:45:11.314Z,97240.00
2023-05-15T01:47:46.437Z,97255.00
2023-05-15T01:50:16.303Z,97241.00
2023-05-15T01:52:55.566Z,97255.00
2023-05-15T01:55:24.933Z,97258.00
2023-05-15T01:57:52.365Z,97254.00
2023-05-15T02:00:19.303Z,97258.00
2023-05-15T02:02:48.578Z,97267.00
2023-05-15T02:05:18.649Z,97248.00
2023-05-15T02:07:47.950Z,97242.00
2023-05-15T02:10:17.580Z,97244.00
2023-05-15T02:12:47.002Z,97249.00
2023-05-15T02:15:16.566Z,97252.00
2023-05-15T02:17:46.182Z,97244.00
2023-05-15T02:20:13.778Z,97241.00
2023-05-15T02:22:40.195Z,97231.00
2023-05-15T02:25:06.616Z,97255.00
2023-05-15T02:27:48.208Z,97245.00
2023-05-15T02:30:31.131Z,97258.00
2023-05-15T02:33:25.223Z,97256.00
2023-05-15T02:36:02.313Z,97240.00
2023-05-15T02:38:35.808Z,97239.00
2023-05-15T02:41:05.084Z,97242.00
2023-05-15T02:43:33.077Z,97255.00
2023-05-15T02:46:00.202Z,97239.00
2023-05-15T02:48:26.710Z,97246.00
2023-05-15T02:50:53.633Z,97233.00
2023-05-15T02:53:19.789Z,97243.00
2023-05-15T02:55:46.002Z,97240.00
2023-05-15T02:58:12.444Z,97259.00
2023-05-15T03:00:38.623Z,97245.00
2023-05-15T03:03:04.906Z,97259.00
2023-05-15T03:05:31.106Z,97248.00
2023-05-15T03:07:58.357Z,97248.00
2023-05-15T03:10:24.494Z,97233.00
2023-05-15T03:12:50.650Z,97240.00
2023-05-15T03:15:17.507Z,97236.00
2023-05-15T03:17:44.008Z,97235.00
2023-05-15T03:20:10.473Z,97239.00
2023-05-15T03:22:36.628Z,97260.00
2023-05-15T03:25:02.915Z,97241.00
2023-05-15T03:27:29.281Z,97226.00
2023-05-15T03:29:55.586Z,97233.00
2023-05-15T03:32:21.882Z,97238.00
2023-05-15T03:34:48.392Z,97246.00
2023-05-15T03:37:14.627Z,97229.00
2023-05-15T03:39:41.031Z,97253.00
2023-05-15T03:42:07.276Z,97233.00
2023-05-15T03:44:33.735Z,97226.00
2023-05-15T03:47:00.236Z,97231.00
2023-05-15T03:49:26.469Z,97213.00
2023-05-15T03:51:53.021Z,97231.00
2023-05-15T03:54:19.226Z,97223.00
2023-05-15T03:56:45.556Z,97226.00
2023-05-15T03:59:11.697Z,97217.00
2023-05-15T04:01:47.527Z,97225.00
2023-05-15T04:04:23.979Z,97220.00
2023-05-15T04:06:50.982Z,97217.00
2023-05-15T04:09:17.099Z,97229.00
2023-05-15T04:11:46.370Z,97241.00
2023-05-15T04:14:12.852Z,97222.00
2023-05-15T04:16:39.026Z,97238.00
2023-05-15T04:19:05.816Z,97239.00
2023-05-15T04:21:31.966Z,97235.00
2023-05-15T04:23:58.351Z,97231.00
2023-05-15T04:26:24.803Z,97218.00
2023-05-15T04:29:02.927Z,97211.00
2023-05-15T04:31:30.830Z,97226.00
2023-05-15T04:33:57.243Z,97230.00
2023-05-15T04:36:23.406Z,97228.00
2023-05-15T04:38:49.611Z,97226.00
2023-05-15T04:41:16.043Z,97236.00
2023-05-15T04:43:42.534Z,97211.00
2023-05-15T04:46:08.717Z,97208.00
2023-05-15T04:48:34.943Z,97230.00
2023-05-15T04:51:01.067Z,97226.00
2023-05-15T04:53:27.232Z,97214.00
2023-05-15T04:55:53.599Z,97218.00
2023-05-15T04:58:19.766Z,97202.00
2023-05-15T05:00:45.926Z,97229.00
2023-05-15T05:03:12.232Z,97197.00
2023-05-15T05:05:38.425Z,97205.00
2023-05-15T05:08:04.622Z,97230.00
2023-05-15T05:10:30.835Z,97216.00
2023-05-15T05:12:56.983Z,97218.00
2023-05-15T05:15:23.315Z,97231.00
2023-05-15T05:17:50.081Z,97222.00
2023-05-15T05:20:16.630Z,97226.00
2023-05-15T05:22:42.813Z,97235.00
2023-05-15T05:25:09.357Z,97220.00
2023-05-15T05:27:38.195Z,97229.00
2023-05-15T05:30:05.588Z,97226.00
2023-05-15T05:32:31.759Z,97235.00
2023-05-15T05:34:57.922Z,97224.00
2023-05-15T05:37:24.046Z,97214.00
2023-05-15T05:39:50.189Z,97236.00
2023-05-15T05:42:16.398Z,97228.00
2023-05-15T05:44:42.566Z,97207.00
2023-05-15T05:47:11.910Z,97227.00
2023-05-15T05:49:39.150Z,97225.00
2023-05-15T05:52:07.313Z,97221.00
2023-05-15T05:54:33.643Z,97223.00
2023-05-15T05:57:00.221Z,97247.00
2023-05-15T05:59:26.391Z,97229.00
2023-05-15T06:01:52.707Z,97227.00
2023-05-15T06:04:18.955Z,97234.00
2023-05-15T06:06:45.474Z,97225.00
2023-05-15T06:09:11.639Z,97229.00
2023-05-15T06:11:37.801Z,97237.00
2023-05-15T06:14:03.941Z,97239.00
2023-05-15T06:16:30.476Z,97232.00
2023-05-15T06:18:56.735Z,97222.00
2023-05-15T06:21:22.837Z,97235.00
2023-05-15T06:23:48.977Z,97241.00
2023-05-15T06:26:15.177Z,97234.00
2023-05-15T06:28:41.328Z,97230.00
2023-05-15T06:31:07.559Z,97242.00
2023-05-15T06:33:33.995Z,97227.00
2023-05-15T06:36:00.246Z,97238.00
2023-05-15T06:38:26.363Z,97227.00
2023-05-15T06:40:52.496Z,97222.00
2023-05-15T06:43:18.650Z,97248.00
2023-05-15T06:45:45.430Z,97228.00
2023-05-15T06:48:14.314Z,97243.00
2023-05-15T06:50:40.532Z,97236.00
2023-05-15T06:53:06.717Z,97244.00
2023-05-15T06:55:33.906Z,97229.00
2023-05-15T06:58:00.370Z,97226.00
2023-05-15T07:00:27.236Z,97232.00
2023-05-15T07:02:53.507Z,97229.00
2023-05-15T07:05:21.107Z,97241.00
2023-05-15T07:07:47.399Z,97236.00
2023-05-15T07:10:13.522Z,97236.00
2023-05-15T07:12:39.730Z,97224.00
2023-05-15T07:15:06.656Z,97232.00
2023-05-15T07:17:33.436Z,97225.00
2023-05-15T07:19:59.695Z,97235.00
2023-05-15T07:22:28.296Z,97232.00
2023-05-15T07:24:54.458Z,97223.00
2023-05-15T07:27:20.613Z,97234.00
2023-05-15T07:29:46.857Z,97235.00
2023-05-15T07:32:13.283Z,97237.00
2023-05-15T07:34:39.429Z,97244.00
2023-05-15T07:37:05.595Z,97243.00
2023-05-15T07:39:31.773Z,97236.00
2023-05-15T07:41:58.174Z,97246.00
2023-05-15T07:44:24.539Z,97256.00
2023-05-15T07:46:51.075Z,97240.00
2023-05-15T07:49:17.231Z,97230.00
2023-05-15T07:51:43.639Z,97220.00
2023-05-15T07:54:09.797Z,97228.00
2023-05-15T07:56:36.181Z,97229.00
2023-05-15T07:59:02.779Z,97226.00
2023-05-15T08:01:30.774Z,97227.00
2023-05-15T08:03:58.953Z,97244.00
2023-05-15T08:06:25.385Z,97244.00
2023-05-15T08:08:51.783Z,97232.00
2023-05-15T08:11:18.405Z,97247.00
2023-05-15T08:13:44.767Z,97229.00
2023-05-15T08:16:11.000Z,97231.00
2023-05-15T08:18:37.326Z,97240.00
2023-05-15T08:21:04.747Z,97233.00
2023-05-15T08:23:31.003Z,97239.00
2023-05-15T08:25:57.144Z,97226.00
2023-05-15T08:28:23.321Z,97244.00
2023-05-15T08:30:49.702Z,97234.00
2023-05-15T08:33:16.150Z,97252.00
2023-05-15T08:35:42.351Z,97240.00
2023-05-15T08:38:09.003Z,97244.00
2023-05-15T08:40:39.844Z,97233.00
2023-05-15T08:43:15.189Z,97223.00
2023-05-15T08:45:42.690Z,97233.00
2023-05-15T08:48:13.853Z,97229.00
2023-05-15T08:50:43.254Z,97227.00
2023-05-15T08:53:12.924Z,97222.00
2023-05-15T08:55:40.904Z,97231.00
2023-05-15T08:58:08.183Z,97231.00
2023-05-15T09:00:34.824Z,97219.00
2023-05-15T09:03:01.648Z,97227.00
2023-05-15T09:05:29.230Z,97220.00
2023-05-15T09:07:58.952Z,97225.00
2023-05-15T09:10:25.319Z,97216.00
2023-05-15T09:12:52.685Z,97223.00
2023-05-15T09:15:24.328Z,97215.00
2023-05-15T09:17:51.520Z,97217.00
2023-05-15T09:20:31.714Z,97225.00
2023-05-15T09:22:59.962Z,97208.00
2023-05-15T09:25:41.877Z,97219.00
2023-05-15T09:28:31.037Z,97205.00
2023-05-15T09:31:00.305Z,97216.00
2023-05-15T09:33:37.083Z,97210.00
2023-05-15T09:36:06.871Z,97205.00
2023-05-15T09:38:38.776Z,97214.00
2023-05-15T09:41:07.529Z,97223.00
2023-05-15T09:43:39.350Z,97206.00
2023-05-15T09:46:12.143Z,97220.00
2023-05-15T09:48:38.893Z,97201.00
2023-05-15T09:51:17.498Z,97209.00
2023-05-15T09:53:50.781Z,97196.00
2023-05-15T09:56:17.510Z,97197.00
2023-05-15T09:58:58.420Z,97192.00
2023-05-15T10:01:26.830Z,97193.00
2023-05-15T10:04:05.699Z,97184.00
2023-05-15T10:06:36.879Z,97204.00
2023-05-15T10:09:04.045Z,97186.00
2023-05-15T10:11:33.849Z,97192.00
2023-05-15T10:14:01.832Z,97189.00
2023-05-15T10:16:30.977Z,97182.00
2023-05-15T10:18:58.221Z,97189.00
2023-05-15T10:21:26.721Z,97183.00
2023-05-15T10:23:56.047Z,97177.00
2023-05-15T10:26:39.362Z,97177.00
2023-05-15T10:29:09.080Z,97177.00
2023-05-15T10:31:35.828Z,97176.00
2023-05-15T10:34:04.585Z,97182.00
2023-05-15T10:36:33.125Z,97186.00
2023-05-15T10:39:01.249Z,97186.00
2023-05-15T10:41:32.945Z,97189.00
2023-05-15T10:44:00.680Z,97183.00
2023-05-15T10:46:34.309Z,97180.00
2023-05-15T10:49:00.961Z,97157.00
2023-05-15T10:51:32.285Z,97168.00
2023-05-15T10:54:02.847Z,97157.00
2023-05-15T10:56:31.232Z,97160.00
2023-05-15T10:59:08.011Z,97168.00
2023-05-15T11:01:39.896Z,97152.00
2023-05-15T11:04:21.993Z,97150.00
2023-05-15T11:06:50.337Z,97161.00
2023-05-15T11:09:27.364Z,97154.00
2023-05-15T11:11:59.688Z,97160.00
2023-05-15T11:14:32.008Z,97150.00
2023-05-15T11:17:02.952Z,97141.00
2023-05-15T11:19:31.615Z,97150.00
2023-05-15T11:22:20.207Z,97130.00
2023-05-15T11:25:04.781Z,97135.00
2023-05-15T11:27:42.673Z,97143.00
2023-05-15T11:30:21.542Z,97142.00
2023-05-15T11:32:54.762Z,97138.00
2023-05-15T11:35:28.507Z,97126.00
2023-05-15T11:38:10.766Z,97137.00
2023-05-15T11:41:02.627Z,97122.00
2023-05-15T11:43:35.621Z,97122.00
2023-05-15T11:46:09.864Z,97122.00
2023-05-15T11:48:42.416Z,97118.00
2023-05-15T11:51:24.173Z,97123.00
2023-05-15T11:53:55.947Z,97106.00
2023-05-15T11:56:27.367Z,97122.00
2023-05-15T11:59:03.198Z,97121.00
2023-05-15T12:01:43.390Z,97121.00
2023-05-15T12:04:18.152Z,97130.00
2023-05-15T12:06:49.124Z,97121.00
2023-05-15T12:09:18.277Z,97131.00
2023-05-15T12:11:52.371Z,97110.00
2023-05-15T12:14:30.010Z,97107.00
2023-05-15T12:17:04.121Z,97108.00
2023-05-15T12:19:35.097Z,97112.00
2023-05-15T12:22:05.771Z,97115.00
2023-05-15T12:24:32.007Z,97101.00
2023-05-15T12:26:58.628Z,97105.00
2023-05-15T12:29:27.222Z,97126.00
2023-05-15T12:31:54.327Z,97102.00
2023-05-15T12:34:21.678Z,97111.00
2023-05-15T12:36:47.994Z,97096.00
2023-05-15T12:39:14.127Z,97096.00
2023-05-15T12:41:40.305Z,97095.00
2023-05-15T12:44:06.474Z,97092.00
2023-05-15T12:46:32.765Z,97101.00
2023-05-15T12:48:59.981Z,97110.00
2023-05-15T12:51:28.960Z,97094.00
2023-05-15T12:53:58.920Z,97090.00
2023-05-15T12:56:25.833Z,97090.00
2023-05-15T12:58:53.764Z,97097.00
2023-05-15T13:01:21.468Z,97100.00
2023-05-15T13:03:48.111Z,97105.00
2023-05-15T13:06:15.849Z,97117.00
2023-05-15T13:08:42.371Z,97116.00
2023-05-15T13:11:15.853Z,97116.00
2023-05-15T13:13:45.418Z,97130.00
2023-05-15T13:16:25.249Z,97140.00
2023-05-15T13:18:52.377Z,97122.00
2023-05-15T13:21:20.237Z,97111.00
2023-05-15T13:23:46.818Z,97129.00
2023-05-15T13:26:13.120Z,97131.00
2023-05-15T13:28:39.884Z,97118.00
2023-05-15T13:31:06.140Z,97110.00
2023-05-15T13:33:33.265Z,97120.00
2023-05-15T13:38:44.203Z,97121.00
2023-05-15T13:41:10.361Z,97121.00
2023-05-15T13:43:36.530Z,97131.00
2023-05-15T13:46:03.845Z,97125.00
2023-05-15T13:48:30.285Z,97102.00
2023-05-15T13:50:56.430Z,97127.00
2023-05-15T13:53:22.765Z,97114.00
2023-05-15T13:55:49.239Z,97111.00
2023-05-15T13:58:15.846Z,97114.00
2023-05-15T14:00:43.584Z,97112.00
2023-05-15T14:03:14.942Z,97117.00
2023-05-15T14:05:41.515Z,97107.00
2023-05-15T14:08:07.669Z,97109.00
2023-05-15T14:10:36.626Z,97109.00
2023-05-15T14:13:02.854Z,97113.00
2023-05-15T14:15:29.038Z,97108.00
2023-05-15T14:17:55.297Z,97111.00
2023-05-15T14:20:21.905Z,97112.00
2023-05-15T14:22:48.344Z,97110.00
2023-05-15T14:25:14.518Z,97096.00
2023-05-15T14:27:40.947Z,97114.00
2023-05-15T14:30:07.902Z,97106.00
2023-05-15T14:32:34.192Z,97094.00
2023-05-15T14:35:00.737Z,97086.00
2023-05-15T14:37:27.574Z,97096.00
2023-05-15T14:39:53.775Z,97091.00
2023-05-15T14:42:21.374Z,97108.00
2023-05-15T14:44:47.872Z,97105.00
2023-05-15T14:47:14.327Z,97115.00
2023-05-15T14:49:40.677Z,97107.00
2023-05-15T14:52:10.414Z,97094.00
2023-05-15T14:54:38.261Z,97094.00
2023-05-15T14:57:04.839Z,97094.00
2023-05-15T14:59:31.114Z,97106.00
2023-05-15T15:01:57.633Z,97096.00
2023-05-15T15:04:28.141Z,97103.00
2023-05-15T15:06:57.219Z,97099.00
2023-05-15T15:09:25.599Z,97110.00
2023-05-15T15:11:53.288Z,97096.00
2023-05-15T15:14:19.758Z,97111.00
2023-05-15T15:16:46.004Z,97121.00
2023-05-15T15:19:13.604Z,97101.00
2023-05-15T15:21:39.899Z,97107.00
2023-05-15T15:24:06.406Z,97109.00
2023-05-15T15:26:32.629Z,97118.00
2023-05-15T15:29:00.122Z,97120.00
2023-05-15T15:31:30.802Z,97114.00
2023-05-15T15:33:57.715Z,97112.00
2023-05-15T15:36:24.687Z,97110.00
2023-05-15T15:38:50.966Z,97109.00
2023-05-15T15:41:17.482Z,97115.00
2023-05-15T15:43:43.780Z,97122.00
2023-05-15T15:46:09.990Z,97124.00
2023-05-15T15:48:36.239Z,97112.00
2023-05-15T15:51:02.672Z,97119.00
2023-05-15T15:53:28.906Z,97120.00
2023-05-15T15:55:55.055Z,97122.00
2023-05-15T15:58:21.245Z,97122.00
2023-05-15T16:00:47.535Z,97116.00
2023-05-15T16:03:13.806Z,97110.00
2023-05-15T16:05:40.008Z,97120.00
2023-05-15T16:08:06.565Z,97121.00
2023-05-15T16:10:32.941Z,97115.00
2023-05-15T16:12:59.401Z,97125.00
2023-05-15T16:15:25.785Z,97128.00
2023-05-15T16:17:53.018Z,97122.00
2023-05-15T16:20:19.810Z,97123.00
2023-05-15T16:22:46.196Z,97132.00
2023-05-15T16:25:12.428Z,97132.00
2023-05-15T16:27:38.596Z,97118.00
2023-05-15T16:30:05.391Z,97127.00
2023-05-15T16:32:32.998Z,97134.00
2023-05-15T16:34:59.162Z,97119.00
2023-05-15T16:37:25.562Z,97128.00
2023-05-15T16:39:51.830Z,97130.00
2023-05-15T16:42:18.012Z,97127.00
2023-05-15T16:44:45.680Z,97126.00
2023-05-15T16:47:11.918Z,97128.00
2023-05-15T16:49:38.291Z,97140.00
2023-05-15T16:52:04.854Z,97125.00
2023-05-15T16:54:31.315Z,97141.00
2023-05-15T16:56:57.455Z,97134.00
2023-05-15T16:59:23.610Z,97155.00
2023-05-15T17:01:50.377Z,97156.00
2023-05-15T17:04:16.566Z,97162.00
2023-05-15T17:06:42.755Z,97156.00
2023-05-15T17:09:08.898Z,97155.00
2023-05-15T17:11:35.084Z,97142.00
2023-05-15T17:14:01.507Z,97158.00
2023-05-15T17:16:27.785Z,97169.00
2023-05-15T17:18:54.229Z,97157.00
2023-05-15T17:21:20.400Z,97165.00
2023-05-15T17:23:46.543Z,97162.00
2023-05-15T17:26:12.681Z,97157.00
2023-05-15T17:28:39.206Z,97180.00
2023-05-15T17:31:09.770Z,97177.00
2023-05-15T17:33:35.902Z,97183.00
2023-05-15T17:36:02.235Z,97183.00
2023-05-15T17:38:28.644Z,97191.00
2023-05-15T17:40:55.013Z,97185.00
2023-05-15T17:43:21.118Z,97194.00
2023-05-15T17:45:47.285Z,97190.00
2023-05-15T17:48:13.480Z,97192.00
2023-05-15T17:50:40.901Z,97206.00
2023-05-15T17:53:07.430Z,97192.00
2023-05-15T17:55:33.562Z,97202.00
2023-05-15T17:57:59.969Z,97206.00
2023-05-15T18:00:26.868Z,97203.00
2023-05-15T18:02:53.237Z,97221.00
2023-05-15T18:05:19.504Z,97213.00
2023-05-15T18:07:47.356Z,97207.00
2023-05-15T18:10:13.985Z,97216.00
2023-05-15T18:12:40.324Z,97230.00
2023-05-15T18:15:07.272Z,97221.00
2023-05-15T18:17:33.804Z,97229.00
2023-05-15T18:20:00.964Z,97243.00
2023-05-15T18:22:27.121Z,97259.00
2023-05-15T18:24:53.260Z,97252.00
2023-05-15T18:27:19.434Z,97249.00
2023-05-15T18:29:45.739Z,97249.00
2023-05-15T18:32:11.935Z,97246.00
2023-05-15T18:34:38.078Z,97271.00
2023-05-15T18:37:04.781Z,97275.00
2023-05-15T18:39:30.891Z,97256.00
2023-05-15T18:41:57.032Z,97270.00
2023-05-15T18:44:23.415Z,97258.00
2023-05-15T18:46:49.622Z,97266.00
2023-05-15T18:49:17.231Z,97274.00
2023-05-15T18:51:43.784Z,97262.00
2023-05-15T18:54:10.209Z,97280.00
2023-05-15T18:56:36.397Z,97271.00
2023-05-15T18:59:02.790Z,97265.00
2023-05-15T19:01:29.368Z,97275.00
2023-05-15T19:03:55.540Z,97278.00
2023-05-15T19:06:21.698Z,97294.00
2023-05-15T19:08:47.913Z,97293.00
2023-05-15T19:11:15.130Z,97294.00
2023-05-15T19:13:41.261Z,97294.00
2023-05-15T19:16:08.495Z,97297.00
2023-05-15T19:18:34.865Z,97299.00
2023-05-15T19:21:01.096Z,97299.00
2023-05-15T19:23:28.304Z,97301.00
2023-05-15T19:25:54.476Z,97316.00
2023-05-15T19:28:20.706Z,97299.00
2023-05-15T19:30:46.924Z,97306.00
2023-05-15T19:33:15.592Z,97306.00
2023-05-15T19:35:41.864Z,97311.00
2023-05-15T19:38:08.012Z,97324.00
2023-05-15T19:40:35.214Z,97311.00
2023-05-15T19:43:01.558Z,97326.00
2023-05-15T19:45:29.916Z,97320.00
2023-05-15T19:47:56.385Z,97326.00
2023-05-15T19:50:22.531Z,97328.00
2023-05-15T19:52:48.729Z,97336.00
2023-05-15T19:55:14.989Z,97342.00
2023-05-15T19:57:44.253Z,97340.00
2023-05-15T20:00:11.704Z,97346.00
2023-05-15T20:02:37.941Z,97333.00
2023-05-15T20:05:04.810Z,97340.00
2023-05-15T20:07:31.000Z,97352.00
2023-05-15T20:09:57.169Z,97346.00
2023-05-15T20:12:23.367Z,97345.00
2023-05-15T20:14:49.775Z,97335.00
2023-05-15T20:17:16.818Z,97359.00
2023-05-15T20:19:43.085Z,97352.00
2023-05-15T20:22:09.228Z,97356.00
2023-05-15T20:24:35.376Z,97352.00
2023-05-15T20:27:03.258Z,97368.00
2023-05-15T20:29:29.463Z,97352.00
2023-05-15T20:31:56.078Z,97364.00
2023-05-15T20:34:22.566Z,97365.00
2023-05-15T20:36:52.206Z,97369.00
2023-05-15T20:39:19.471Z,97363.00
2023-05-15T20:41:45.904Z,97374.00
2023-05-15T20:44:12.117Z,97359.00
2023-05-15T20:46:40.193Z,97363.00
2023-05-15T20:49:06.416Z,97353.00
2023-05-15T20:51:32.576Z,97358.00
2023-05-15T20:53:58.714Z,97356.00
2023-05-15T20:56:25.365Z,97362.00
2023-05-15T20:58:52.512Z,97363.00
2023-05-15T21:01:18.879Z,97373.00
2023-05-15T21:03:45.056Z,97359.00
2023-05-15T21:06:13.449Z,97354.00
2023-05-15T21:08:39.693Z,97366.00
2023-05-15T21:11:05.819Z,97364.00
2023-05-15T21:13:31.980Z,97370.00
2023-05-15T21:15:58.113Z,97374.00
2023-05-15T21:18:24.540Z,97375.00
2023-05-15T21:20:51.158Z,97371.00
2023-05-15T21:23:20.608Z,97366.00
2023-05-15T21:25:47.247Z,97370.00
2023-05-15T21:28:13.447Z,97377.00
2023-05-15T21:30:39.779Z,97374.00
2023-05-15T21:33:06.300Z,97367.00
2023-05-15T21:35:32.514Z,97374.00
2023-05-15T21:37:59.280Z,97369.00
2023-05-15T21:40:25.806Z,97378.00
2023-05-15T21:42:52.103Z,97381.00
2023-05-15T21:45:18.915Z,97370.00
2023-05-15T21:47:45.060Z,97366.00
2023-05-15T21:50:11.210Z,97373.00
2023-05-15T21:52:37.319Z,97380.00
2023-05-15T21:55:04.097Z,97381.00
2023-05-15T21:57:30.251Z,97373.00
2023-05-15T21:59:56.391Z,97377.00
2023-05-15T22:02:22.895Z,97368.00
2023-05-15T22:04:49.403Z,97367.00
2023-05-15T22:07:15.766Z,97370.00
2023-05-15T22:09:44.156Z,97381.00
2023-05-15T22:12:10.671Z,97363.00
2023-05-15T22:14:39.539Z,97375.00
2023-05-15T22:17:08.276Z,97369.00
2023-05-15T22:19:34.443Z,97368.00
2023-05-15T22:22:02.891Z,97372.00
2023-05-15T22:24:29.247Z,97370.00
2023-05-15T22:26:55.377Z,97365.00
2023-05-15T22:29:21.774Z,97384.00
2023-05-15T22:31:48.183Z,97380.00
2023-05-15T22:34:14.372Z,97380.00
2023-05-15T22:36:41.161Z,97378.00
2023-05-15T22:39:07.438Z,97385.00
2023-05-15T22:41:33.852Z,97375.00
2023-05-15T22:44:05.645Z,97380.00
2023-05-15T22:46:31.995Z,97376.00
2023-05-15T22:49:00.764Z,97378.00
2023-05-15T22:51:28.678Z,97392.00
2023-05-15T22:53:54.815Z,97387.00
2023-05-15T22:56:21.022Z,97387.00
2023-05-15T22:58:47.482Z,97396.00
2023-05-15T23:01:13.936Z,97394.00
2023-05-15T23:03:40.151Z,97386.00
2023-05-15T23:06:06.462Z,97386.00
2023-05-15T23:08:32.593Z,97381.00
2023-05-15T23:10:58.723Z,97386.00
2023-05-15T23:13:24.868Z,97380.00
2023-05-15T23:15:51.295Z,97381.00
2023-05-15T23:18:17.600Z,97377.00
2023-05-15T23:20:43.993Z,97378.00
2023-05-15T23:23:10.282Z,97389.00
2023-05-15T23:25:37.670Z,97396.00
2023-05-15T23:28:03.815Z,97379.00
2023-05-15T23:30:29.974Z,97379.00
2023-05-15T23:32:56.320Z,97390.00
2023-05-15T23:35:22.669Z,97385.00
2023-05-15T23:37:48.807Z,97397.00
2023-05-15T23:40:15.267Z,97397.00
2023-05-15T23:42:41.385Z,97391.00
2023-05-15T23:45:08.744Z,97384.00
2023-05-15T23:47:34.925Z,97395.00
2023-05-15T23:50:03.366Z,97382.00
2023-05-15T23:52:29.526Z,97394.00
2023-05-15T23:54:55.652Z,97381.00
2023-05-15T23:57:22.073Z,97391.00
2023-05-15T23:59:48.252Z,97388.00
